createdAt,value
2018-12-23T00:00:58.660Z,7.88
2018-12-23T00:01:59.352Z,7.91
2018-12-23T00:03:00.709Z,7.91
2018-12-23T00:04:01.124Z,7.88
2018-12-23T00:05:01.826Z,7.91
2018-12-23T00:05:13.868Z,7.87
2018-12-23T00:06:15.536Z,7.84
2018-12-23T00:07:15.954Z,7.91
2018-12-23T00:08:16.649Z,7.85
2018-12-23T00:09:17.349Z,7.95
2018-12-23T00:10:18.769Z,8.03
2018-12-23T00:11:18.906Z,8.06
2018-12-23T00:12:19.605Z,7.93
2018-12-23T00:13:20.020Z,7.91
2018-12-23T00:14:20.711Z,8.06
2018-12-23T00:15:21.408Z,8.03
2018-12-23T00:16:22.904Z,8.06
2018-12-23T00:17:23.324Z,8.16
2018-12-23T00:18:23.740Z,8.13
2018-12-23T00:19:25.264Z,8.09
2018-12-23T00:20:25.511Z,8.05
2018-12-23T00:21:25.933Z,8.06
2018-12-23T00:22:26.627Z,8.06
2018-12-23T00:23:26.767Z,8.08
2018-12-23T00:24:27.465Z,8.13
2018-12-23T00:25:28.439Z,8.03
2018-12-23T00:26:28.990Z,8.09
2018-12-23T00:27:29.962Z,8.03
2018-12-23T00:28:30.936Z,8.11
2018-12-23T00:29:31.367Z,8.05
2018-12-23T00:30:32.613Z,8.03
2018-12-23T00:31:32.874Z,7.98
2018-12-23T00:32:34.127Z,7.93
2018-12-23T00:33:34.556Z,7.93
2018-12-23T00:34:34.975Z,7.93
2018-12-23T00:35:36.229Z,7.85
2018-12-23T00:36:37.608Z,7.87
2018-12-23T00:37:38.677Z,7.88
2018-12-23T00:38:39.376Z,7.91
2018-12-23T00:39:40.165Z,7.87
2018-12-23T00:40:40.658Z,7.85
2018-12-23T00:41:41.637Z,7.84
2018-12-23T00:42:42.054Z,7.83
2018-12-23T00:43:43.025Z,7.8
2018-12-23T00:44:43.449Z,7.72
2018-12-23T00:45:44.482Z,7.69
2018-12-23T00:46:45.147Z,7.69
2018-12-23T00:47:45.590Z,7.77
2018-12-23T00:48:46.663Z,7.7
2018-12-23T00:49:47.359Z,7.72
2018-12-23T00:50:48.499Z,7.7
2018-12-23T00:51:49.642Z,7.62
2018-12-23T00:52:51.057Z,7.69
2018-12-23T00:53:51.752Z,7.74
2018-12-23T00:54:52.888Z,7.7
2018-12-23T00:55:54.028Z,7.69
2018-12-23T00:56:54.855Z,7.64
2018-12-23T00:57:55.600Z,7.66
2018-12-23T00:58:56.740Z,7.66
2018-12-23T00:59:57.990Z,7.67
2018-12-23T01:00:58.407Z,7.72
2018-12-23T01:01:59.103Z,7.7
2018-12-23T01:02:59.520Z,7.66
2018-12-23T01:04:00.939Z,7.7
2018-12-23T01:05:01.357Z,7.67
2018-12-23T01:06:02.054Z,7.78
2018-12-23T01:07:03.170Z,7.9
2018-12-23T01:08:04.681Z,8.03
2018-12-23T01:09:05.096Z,8.08
2018-12-23T01:10:05.513Z,8.17
2018-12-23T01:11:06.210Z,8.27
2018-12-23T01:12:06.904Z,8.35
2018-12-23T01:13:07.324Z,8.46
2018-12-23T01:14:08.664Z,8.5
2018-12-23T01:15:08.631Z,8.61
2018-12-23T01:16:09.444Z,8.57
2018-12-23T01:17:09.716Z,8.72
2018-12-23T01:18:10.137Z,8.78
2018-12-23T01:19:11.558Z,8.86
2018-12-23T01:20:12.866Z,9.02
2018-12-23T01:21:13.285Z,9.09
2018-12-23T01:22:13.978Z,9.05
2018-12-23T01:23:14.671Z,9.13
2018-12-23T01:24:15.808Z,9.08
2018-12-23T01:25:17.343Z,9.18
2018-12-23T01:26:28.859Z,9.11
2018-12-23T01:27:29.750Z,9.15
2018-12-23T01:28:30.158Z,9.09
2018-12-23T01:29:30.846Z,9.11
2018-12-23T01:30:31.531Z,9.11
2018-12-23T01:31:32.216Z,9.15
2018-12-23T01:32:33.543Z,9.15
2018-12-23T01:33:34.508Z,9.11
2018-12-23T01:34:38.956Z,9.12
2018-12-23T01:35:39.638Z,9.15
2018-12-23T01:36:40.046Z,9.13
2018-12-23T01:37:40.577Z,9.13
2018-12-23T01:38:41.820Z,9.13
2018-12-23T01:39:41.778Z,9.24
2018-12-23T01:40:42.187Z,9.15
2018-12-23T01:41:43.872Z,9.11
2018-12-23T01:42:43.562Z,9.09
2018-12-23T01:43:44.688Z,9.11
2018-12-23T01:44:45.815Z,9.05
2018-12-23T01:45:47.222Z,9.05
2018-12-23T01:46:48.187Z,9
2018-12-23T01:47:48.052Z,9.08
2018-12-23T01:48:48.733Z,9.03
2018-12-23T01:49:49.140Z,9.08
2018-12-23T01:50:49.828Z,9.11
2018-12-23T01:51:50.068Z,9.09
2018-12-23T01:52:50.752Z,9.09
2018-12-23T01:53:51.433Z,9.12
2018-12-23T01:54:51.838Z,9.02
2018-12-23T01:55:51.965Z,9.13
2018-12-23T01:56:52.927Z,9.09
2018-12-23T01:57:54.013Z,9.05
2018-12-23T01:58:54.974Z,9.03
2018-12-23T01:59:55.488Z,9
2018-12-23T02:00:56.170Z,9
2018-12-23T02:01:56.643Z,8.93
2018-12-23T02:02:56.772Z,9.02
2018-12-23T02:03:57.735Z,8.97
2018-12-23T02:04:58.140Z,9.05
2018-12-23T02:05:58.824Z,8.99
2018-12-23T02:06:59.517Z,9.02
2018-12-23T02:08:00.628Z,8.99
2018-12-23T02:09:01.589Z,8.99
2018-12-23T02:10:02.000Z,9
2018-12-23T02:11:02.681Z,9.05
2018-12-23T02:12:02.920Z,9.03
2018-12-23T02:13:03.046Z,8.99
2018-12-23T02:14:03.732Z,9.03
2018-12-23T02:15:04.416Z,9
2018-12-23T02:16:05.103Z,9
2018-12-23T02:17:05.792Z,8.96
2018-12-23T02:18:06.394Z,9.02
2018-12-23T02:19:07.357Z,9.02
2018-12-23T02:20:07.761Z,9.03
2018-12-23T02:21:07.990Z,9.09
2018-12-23T02:22:08.406Z,8.96
2018-12-23T02:23:09.478Z,8.95
2018-12-23T02:24:10.995Z,8.96
2018-12-23T02:25:11.959Z,8.96
2018-12-23T02:26:11.940Z,9.05
2018-12-23T02:27:12.449Z,8.95
2018-12-23T02:28:13.541Z,8.99
2018-12-23T02:29:14.227Z,9.03
2018-12-23T02:30:14.633Z,9.03
2018-12-23T02:31:14.969Z,8.99
2018-12-23T02:32:15.924Z,9.02
2018-12-23T02:33:16.456Z,9.11
2018-12-23T02:34:17.155Z,9.02
2018-12-23T02:35:17.563Z,9.02
2018-12-23T02:36:19.092Z,8.99
2018-12-23T02:37:19.531Z,9.03
2018-12-23T02:38:20.492Z,8.93
2018-12-23T02:39:20.694Z,8.96
2018-12-23T02:40:20.824Z,8.97
2018-12-23T02:41:21.513Z,8.99
2018-12-23T02:41:34.565Z,9.05
2018-12-23T02:42:36.518Z,9.05
2018-12-23T02:43:37.235Z,9
2018-12-23T02:44:37.646Z,9
2018-12-23T02:45:38.884Z,9.03
2018-12-23T02:46:39.574Z,9.03
2018-12-23T02:47:40.403Z,9.02
2018-12-23T02:48:40.807Z,9
2018-12-23T02:49:41.215Z,8.99
2018-12-23T02:50:42.627Z,8.96
2018-12-23T02:51:43.318Z,8.96
2018-12-23T02:52:44.688Z,8.95
2018-12-23T02:53:44.925Z,8.96
2018-12-23T02:54:45.333Z,8.99
2018-12-23T02:55:46.026Z,8.96
2018-12-23T02:56:45.990Z,8.92
2018-12-23T02:57:46.723Z,8.99
2018-12-23T02:58:47.683Z,8.89
2018-12-23T02:59:48.367Z,8.93
2018-12-23T03:00:50.055Z,8.92
2018-12-23T03:01:50.743Z,8.89
2018-12-23T03:02:52.147Z,9
2018-12-23T03:03:53.109Z,8.99
2018-12-23T03:04:54.071Z,8.97
2018-12-23T03:05:54.757Z,8.97
2018-12-23T03:06:07.758Z,8.97
2018-12-23T03:07:07.875Z,9
2018-12-23T03:08:08.560Z,8.99
2018-12-23T03:09:09.244Z,9.03
2018-12-23T03:10:10.219Z,9.02
2018-12-23T03:11:10.456Z,9.02
2018-12-23T03:12:12.164Z,9.02
2018-12-23T03:13:12.449Z,9.02
2018-12-23T03:14:13.966Z,8.99
2018-12-23T03:15:14.363Z,8.82
2018-12-23T03:16:15.042Z,8.74
2018-12-23T03:17:15.237Z,8.61
2018-12-23T03:18:16.659Z,8.68
2018-12-23T03:19:17.331Z,8.75
2018-12-23T03:20:18.300Z,8.69
2018-12-23T03:21:18.706Z,8.68
2018-12-23T03:22:20.236Z,8.64
2018-12-23T03:23:20.644Z,8.54
2018-12-23T03:24:21.331Z,8.6
2018-12-23T03:25:21.752Z,8.52
2018-12-23T03:26:23.297Z,8.38
2018-12-23T03:27:23.800Z,8.41
2018-12-23T03:28:25.079Z,8.42
2018-12-23T03:29:25.772Z,8.38
2018-12-23T03:30:26.462Z,8.42
2018-12-23T03:31:27.256Z,8.39
2018-12-23T03:32:27.938Z,8.38
2018-12-23T03:33:28.183Z,8.42
2018-12-23T03:34:28.926Z,8.39
2018-12-23T03:35:29.358Z,8.38
2018-12-23T03:36:30.047Z,8.42
2018-12-23T03:37:31.458Z,8.45
2018-12-23T03:38:32.144Z,8.41
2018-12-23T03:39:32.663Z,8.42
2018-12-23T03:40:33.629Z,8.39
2018-12-23T03:41:34.314Z,8.45
2018-12-23T03:42:35.008Z,8.42
2018-12-23T03:43:35.700Z,8.38
2018-12-23T03:44:37.218Z,8.54
2018-12-23T03:45:37.625Z,8.45
2018-12-23T03:46:38.661Z,8.52
2018-12-23T03:47:39.763Z,8.38
2018-12-23T03:48:40.546Z,8.52
2018-12-23T03:49:40.787Z,8.35
2018-12-23T03:50:41.195Z,8.42
2018-12-23T03:51:41.602Z,8.46
2018-12-23T03:52:42.579Z,8.5
2018-12-23T03:53:43.101Z,8.53
2018-12-23T03:54:43.990Z,8.54
2018-12-23T03:55:45.509Z,8.52
2018-12-23T03:56:45.470Z,8.61
2018-12-23T03:57:45.865Z,8.56
2018-12-23T03:58:46.549Z,8.52
2018-12-23T03:59:47.512Z,8.46
2018-12-23T04:00:47.755Z,8.59
2018-12-23T04:01:48.165Z,8.61
2018-12-23T04:02:48.572Z,8.6
2018-12-23T04:03:49.535Z,8.64
2018-12-23T04:04:50.497Z,8.69
2018-12-23T04:05:51.739Z,8.64
2018-12-23T04:06:52.696Z,8.66
2018-12-23T04:07:53.901Z,8.63
2018-12-23T04:08:53.865Z,8.68
2018-12-23T04:09:54.547Z,8.64
2018-12-23T04:10:54.512Z,8.71
2018-12-23T04:11:55.924Z,8.64
2018-12-23T04:12:56.999Z,8.71
2018-12-23T04:13:58.067Z,8.71
2018-12-23T04:14:58.193Z,8.64
2018-12-23T04:15:59.617Z,8.59
2018-12-23T04:17:00.029Z,8.54
2018-12-23T04:18:01.413Z,8.56
2018-12-23T04:19:02.098Z,8.36
2018-12-23T04:20:02.796Z,8.39
2018-12-23T04:21:03.766Z,8.39
2018-12-23T04:22:04.014Z,8.39
2018-12-23T04:23:04.781Z,8.41
2018-12-23T04:24:06.399Z,8.42
2018-12-23T04:25:06.080Z,8.38
2018-12-23T04:26:07.319Z,8.31
2018-12-23T04:27:07.730Z,8.24
2018-12-23T04:28:08.624Z,8.21
2018-12-23T04:29:08.756Z,8.17
2018-12-23T04:30:10.278Z,8.18
2018-12-23T04:31:11.070Z,8.2
2018-12-23T04:32:11.587Z,8.08
2018-12-23T04:33:12.001Z,8.05
2018-12-23T04:34:12.685Z,8.06
2018-12-23T04:35:13.667Z,8.13
2018-12-23T04:36:14.913Z,8.02
2018-12-23T04:37:15.601Z,8.05
2018-12-23T04:38:16.137Z,8.06
2018-12-23T04:39:17.104Z,8.06
2018-12-23T04:40:18.119Z,7.91
2018-12-23T04:41:19.084Z,8.01
2018-12-23T04:42:20.053Z,7.88
2018-12-23T04:43:21.313Z,7.95
2018-12-23T04:44:22.276Z,7.9
2018-12-23T04:45:23.608Z,7.96
2018-12-23T04:46:24.133Z,7.87
2018-12-23T04:47:25.369Z,7.83
2018-12-23T04:48:25.502Z,7.84
2018-12-23T04:49:26.484Z,7.99
2018-12-23T04:50:27.555Z,7.91
2018-12-23T04:51:27.973Z,7.93
2018-12-23T04:52:28.667Z,7.93
2018-12-23T04:53:29.369Z,7.91
2018-12-23T04:54:30.604Z,7.9
2018-12-23T04:55:31.572Z,7.88
2018-12-23T04:56:32.648Z,7.87
2018-12-23T04:57:33.888Z,7.95
2018-12-23T04:58:34.550Z,7.87
2018-12-23T04:59:35.248Z,7.9
2018-12-23T05:00:35.944Z,7.88
2018-12-23T05:01:36.074Z,7.96
2018-12-23T05:02:36.592Z,7.95
2018-12-23T05:03:48.906Z,7.98
2018-12-23T05:04:49.417Z,8.05
2018-12-23T05:05:50.117Z,8.03
2018-12-23T05:06:51.079Z,8.11
2018-12-23T05:07:51.483Z,8.03
2018-12-23T05:08:52.469Z,8.02
2018-12-23T05:09:53.154Z,8.05
2018-12-23T05:10:54.120Z,8.06
2018-12-23T05:11:55.471Z,8.05
2018-12-23T05:12:56.169Z,8.03
2018-12-23T05:13:57.703Z,8.05
2018-12-23T05:14:58.822Z,8.02
2018-12-23T05:15:59.226Z,8.06
2018-12-23T05:16:59.686Z,8.06
2018-12-23T05:18:01.093Z,8.03
2018-12-23T05:19:01.910Z,8.05
2018-12-23T05:20:02.309Z,8.05
2018-12-23T05:21:02.714Z,8.05
2018-12-23T05:22:03.843Z,7.99
2018-12-23T05:23:05.065Z,8.06
2018-12-23T05:24:05.472Z,8.13
2018-12-23T05:25:06.281Z,8.13
2018-12-23T05:26:06.972Z,8.09
2018-12-23T05:27:07.380Z,8.08
2018-12-23T05:28:08.342Z,8.11
2018-12-23T05:29:08.859Z,8.06
2018-12-23T05:30:09.827Z,8.02
2018-12-23T05:31:10.811Z,8.06
2018-12-23T05:32:10.773Z,8.09
2018-12-23T05:33:10.905Z,8.05
2018-12-23T05:34:11.872Z,8.03
2018-12-23T05:35:11.982Z,8.05
2018-12-23T05:36:13.113Z,8.05
2018-12-23T05:37:13.797Z,8.09
2018-12-23T05:38:15.051Z,8.06
2018-12-23T05:39:16.329Z,8.06
2018-12-23T05:40:16.737Z,8.03
2018-12-23T05:41:17.417Z,8.09
2018-12-23T05:42:18.825Z,8.02
2018-12-23T05:43:19.620Z,8.03
2018-12-23T05:44:19.862Z,8.06
2018-12-23T05:45:20.793Z,8.08
2018-12-23T05:46:21.589Z,8.02
2018-12-23T05:47:21.994Z,8.03
2018-12-23T05:48:22.678Z,7.95
2018-12-23T05:49:24.193Z,7.93
2018-12-23T05:50:24.671Z,7.93
2018-12-23T05:51:25.356Z,7.95
2018-12-23T05:52:26.038Z,7.93
2018-12-23T05:53:26.167Z,7.96
2018-12-23T05:54:27.299Z,8.05
2018-12-23T05:55:27.582Z,8.06
2018-12-23T05:56:28.827Z,8.02
2018-12-23T05:57:29.332Z,8.13
2018-12-23T05:58:30.289Z,8.03
2018-12-23T05:59:30.709Z,8.05
2018-12-23T06:00:31.664Z,8.05
2018-12-23T06:01:32.905Z,8.14
2018-12-23T06:02:34.316Z,8.14
2018-12-23T06:03:35.086Z,8.11
2018-12-23T06:04:35.769Z,8.16
2018-12-23T06:05:36.881Z,8.06
2018-12-23T06:06:37.287Z,8.08
2018-12-23T06:07:37.786Z,8.06
2018-12-23T06:08:38.192Z,8.16
2018-12-23T06:09:39.598Z,8.05
2018-12-23T06:10:40.564Z,8.09
2018-12-23T06:11:41.248Z,8.14
2018-12-23T06:12:41.932Z,8.06
2018-12-23T06:13:42.612Z,8.06
2018-12-23T06:14:43.295Z,7.95
2018-12-23T06:15:43.837Z,8.05
2018-12-23T06:16:45.074Z,8.02
2018-12-23T06:17:45.861Z,7.88
2018-12-23T06:18:46.549Z,7.95
2018-12-23T06:19:47.510Z,7.96
2018-12-23T06:20:48.641Z,7.88
2018-12-23T06:21:49.599Z,7.96
2018-12-23T06:22:51.105Z,7.96
2018-12-23T06:23:51.788Z,7.93
2018-12-23T06:24:53.204Z,8.03
2018-12-23T06:25:53.736Z,7.96
2018-12-23T06:26:54.423Z,7.84
2018-12-23T06:27:55.381Z,7.93
2018-12-23T06:28:56.345Z,7.87
2018-12-23T06:29:56.753Z,7.91
2018-12-23T06:30:57.436Z,8.05
2018-12-23T06:31:58.399Z,7.93
2018-12-23T06:32:59.362Z,8.06
2018-12-23T06:34:00.767Z,7.91
2018-12-23T06:35:01.451Z,8.03
2018-12-23T06:36:02.410Z,8.09
2018-12-23T06:37:15.290Z,8.06
2018-12-23T06:38:15.349Z,8.09
2018-12-23T06:39:16.309Z,8.09
2018-12-23T06:40:16.993Z,8.18
2018-12-23T06:41:17.674Z,8.09
2018-12-23T06:42:18.361Z,8.2
2018-12-23T06:43:19.324Z,8.06
2018-12-23T06:44:19.451Z,8.13
2018-12-23T06:45:21.134Z,8.09
2018-12-23T06:46:21.171Z,8.06
2018-12-23T06:47:22.128Z,8.09
2018-12-23T06:48:23.212Z,8.11
2018-12-23T06:49:23.897Z,8.06
2018-12-23T06:50:25.329Z,8.05
2018-12-23T06:51:25.813Z,8.09
2018-12-23T06:52:27.050Z,8.03
2018-12-23T06:53:27.732Z,8.08
2018-12-23T06:54:27.953Z,8.05
2018-12-23T06:55:28.639Z,8.05
2018-12-23T06:56:29.325Z,8.03
2018-12-23T06:57:30.285Z,8.08
2018-12-23T06:58:30.823Z,8.05
2018-12-23T06:59:31.505Z,8.16
2018-12-23T07:00:32.465Z,8.17
2018-12-23T07:01:33.428Z,8.09
2018-12-23T07:02:33.557Z,8.06
2018-12-23T07:03:34.548Z,8.11
2018-12-23T07:04:35.980Z,8.14
2018-12-23T07:05:36.386Z,8.11
2018-12-23T07:06:36.795Z,8.18
2018-12-23T07:07:37.200Z,8.11
2018-12-23T07:08:38.579Z,8.16
2018-12-23T07:09:39.829Z,8.18
2018-12-23T07:10:40.512Z,8.01
2018-12-23T07:11:40.642Z,8.11
2018-12-23T07:12:42.260Z,8.06
2018-12-23T07:13:42.006Z,8.06
2018-12-23T07:14:42.693Z,8.11
2018-12-23T07:15:42.824Z,8.11
2018-12-23T07:16:43.786Z,8.13
2018-12-23T07:17:44.277Z,8.06
2018-12-23T07:18:45.449Z,8.21
2018-12-23T07:19:45.577Z,8.16
2018-12-23T07:20:46.561Z,8.06
2018-12-23T07:21:47.246Z,8.14
2018-12-23T07:22:47.654Z,8.09
2018-12-23T07:23:48.159Z,8.06
2018-12-23T07:24:49.138Z,8.08
2018-12-23T07:25:49.821Z,8.16
2018-12-23T07:26:50.510Z,8.14
2018-12-23T07:27:51.196Z,8.17
2018-12-23T07:28:52.030Z,8.11
2018-12-23T07:29:53.001Z,8.16
2018-12-23T07:30:53.407Z,8.16
2018-12-23T07:31:54.376Z,8.2
2018-12-23T07:32:55.337Z,8.24
2018-12-23T07:33:55.744Z,8.17
2018-12-23T07:34:56.249Z,8.17
2018-12-23T07:35:56.661Z,8.2
2018-12-23T07:36:58.071Z,8.17
2018-12-23T07:37:58.480Z,8.2
2018-12-23T07:38:59.295Z,8.18
2018-12-23T07:39:59.981Z,8.21
2018-12-23T07:41:00.188Z,8.18
2018-12-23T07:42:00.426Z,8.2
2018-12-23T07:43:01.117Z,8.2
2018-12-23T07:44:01.907Z,8.14
2018-12-23T07:45:02.911Z,8.16
2018-12-23T07:46:02.600Z,8.14
2018-12-23T07:47:02.828Z,8.14
2018-12-23T07:48:03.965Z,8.11
2018-12-23T07:49:05.447Z,8.17
2018-12-23T07:50:05.861Z,8.2
2018-12-23T07:51:06.266Z,8.14
2018-12-23T07:52:07.234Z,8.16
2018-12-23T07:53:08.643Z,8.16
2018-12-23T07:54:09.329Z,8.2
2018-12-23T07:55:09.740Z,8.16
2018-12-23T07:56:10.429Z,8.18
2018-12-23T07:57:10.835Z,8.16
2018-12-23T07:58:10.799Z,8.18
2018-12-23T07:59:11.686Z,8.18
2018-12-23T08:00:11.817Z,8.09
2018-12-23T08:01:12.632Z,8.09
2018-12-23T08:02:13.093Z,7.87
2018-12-23T08:03:14.058Z,7.88
2018-12-23T08:04:14.028Z,7.88
2018-12-23T08:05:14.744Z,7.81
2018-12-23T08:06:16.246Z,7.8
2018-12-23T08:07:16.650Z,7.74
2018-12-23T08:08:17.337Z,7.75
2018-12-23T08:09:18.151Z,7.81
2018-12-23T08:10:18.561Z,7.83
2018-12-23T08:11:19.523Z,7.87
2018-12-23T08:12:19.663Z,7.9
2018-12-23T08:13:21.345Z,7.85
2018-12-23T08:14:22.035Z,7.83
2018-12-23T08:15:22.724Z,7.87
2018-12-23T08:16:22.688Z,7.9
2018-12-23T08:17:23.378Z,7.98
2018-12-23T08:18:23.786Z,7.9
2018-12-23T08:19:24.043Z,8.03
2018-12-23T08:20:24.733Z,8.06
2018-12-23T08:21:25.901Z,8.05
2018-12-23T08:22:27.309Z,8.09
2018-12-23T08:23:27.822Z,8.08
2018-12-23T08:24:28.787Z,8.14
2018-12-23T08:25:41.526Z,8.16
2018-12-23T08:26:42.634Z,8.18
2018-12-23T08:27:43.323Z,8.17
2018-12-23T08:28:43.731Z,8.2
2018-12-23T08:29:44.422Z,8.18
2018-12-23T08:30:45.107Z,8.2
2018-12-23T08:31:45.796Z,8.18
2018-12-23T08:32:46.331Z,8.11
2018-12-23T08:33:47.066Z,8.21
2018-12-23T08:34:47.758Z,8.17
2018-12-23T08:35:49.450Z,8.14
2018-12-23T08:36:50.004Z,8.21
2018-12-23T08:37:50.690Z,8.16
2018-12-23T08:38:51.654Z,8.21
2018-12-23T08:39:51.344Z,8.23
2018-12-23T08:40:52.585Z,8.21
2018-12-23T08:41:53.549Z,8.23
2018-12-23T08:42:53.957Z,8.32
2018-12-23T08:43:55.645Z,8.34
2018-12-23T08:44:55.872Z,8.34
2018-12-23T08:45:56.365Z,8.35
2018-12-23T08:46:57.187Z,8.32
2018-12-23T08:47:57.954Z,8.32
2018-12-23T08:48:58.644Z,8.35
2018-12-23T08:50:00.777Z,8.42
2018-12-23T08:51:01.188Z,8.38
2018-12-23T08:52:02.151Z,8.35
2018-12-23T08:53:02.284Z,8.39
2018-12-23T08:54:02.973Z,8.49
2018-12-23T08:55:03.670Z,8.52
2018-12-23T08:56:04.079Z,8.57
2018-12-23T08:57:04.633Z,8.53
2018-12-23T08:58:05.608Z,8.54
2018-12-23T08:59:05.734Z,8.52
2018-12-23T09:00:06.701Z,8.57
2018-12-23T09:01:08.398Z,8.63
2018-12-23T09:02:08.812Z,8.64
2018-12-23T09:03:09.502Z,8.61
2018-12-23T09:03:21.829Z,8.72
2018-12-23T09:04:22.946Z,8.74
2018-12-23T09:05:23.736Z,8.77
2018-12-23T09:06:24.439Z,8.78
2018-12-23T09:07:25.850Z,8.78
2018-12-23T09:08:26.535Z,8.81
2018-12-23T09:09:26.790Z,8.75
2018-12-23T09:10:27.758Z,8.75
2018-12-23T09:11:28.889Z,8.82
2018-12-23T09:12:29.673Z,8.77
2018-12-23T09:13:30.355Z,8.74
2018-12-23T09:14:31.462Z,8.77
2018-12-23T09:15:32.148Z,8.81
2018-12-23T09:16:32.555Z,8.82
2018-12-23T09:17:33.021Z,8.78
2018-12-23T09:18:34.154Z,8.79
2018-12-23T09:19:35.574Z,8.78
2018-12-23T09:20:36.088Z,8.82
2018-12-23T09:21:36.781Z,8.87
2018-12-23T09:22:36.939Z,8.82
2018-12-23T09:23:37.635Z,8.82
2018-12-23T09:24:39.690Z,8.79
2018-12-23T09:25:39.819Z,8.89
2018-12-23T09:26:40.504Z,8.77
2018-12-23T09:27:41.196Z,8.77
2018-12-23T09:28:41.886Z,8.75
2018-12-23T09:29:42.575Z,8.75
2018-12-23T09:30:43.549Z,8.71
2018-12-23T09:31:43.965Z,8.68
2018-12-23T09:32:44.521Z,8.59
2018-12-23T09:33:45.485Z,8.69
2018-12-23T09:34:46.576Z,8.66
2018-12-23T09:35:47.543Z,8.69
2018-12-23T09:36:49.369Z,8.75
2018-12-23T09:37:50.060Z,8.75
2018-12-23T09:38:51.027Z,8.78
2018-12-23T09:39:51.907Z,8.81
2018-12-23T09:40:52.871Z,8.75
2018-12-23T09:41:53.341Z,8.74
2018-12-23T09:42:54.477Z,8.78
2018-12-23T09:43:55.167Z,8.81
2018-12-23T09:44:55.429Z,8.79
2018-12-23T09:45:55.924Z,8.75
2018-12-23T09:46:57.171Z,8.78
2018-12-23T09:47:57.957Z,8.79
2018-12-23T09:48:58.369Z,8.71
2018-12-23T09:49:59.506Z,8.71
2018-12-23T09:50:59.926Z,8.75
2018-12-23T09:52:00.623Z,8.74
2018-12-23T09:53:02.040Z,8.79
2018-12-23T09:54:02.761Z,8.79
2018-12-23T09:55:03.579Z,8.82
2018-12-23T09:56:04.050Z,8.82
2018-12-23T09:57:05.025Z,8.9
2018-12-23T09:58:05.742Z,8.97
2018-12-23T09:59:06.988Z,8.99
2018-12-23T10:00:07.954Z,9
2018-12-23T10:01:08.375Z,8.99
2018-12-23T10:02:09.513Z,9.02
2018-12-23T10:03:11.215Z,9.11
2018-12-23T10:04:11.358Z,9
2018-12-23T10:05:12.489Z,9.02
2018-12-23T10:06:13.560Z,8.97
2018-12-23T10:07:14.253Z,9.03
2018-12-23T10:08:14.224Z,8.99
2018-12-23T10:09:14.917Z,8.99
2018-12-23T10:10:15.334Z,9.09
2018-12-23T10:11:16.023Z,9.02
2018-12-23T10:12:17.202Z,9.05
2018-12-23T10:13:18.172Z,9.03
2018-12-23T10:14:19.144Z,9.02
2018-12-23T10:15:20.525Z,9.03
2018-12-23T10:16:20.995Z,9.05
2018-12-23T10:17:21.684Z,9.11
2018-12-23T10:18:21.822Z,9.09
2018-12-23T10:19:22.511Z,9.11
2018-12-23T10:20:23.285Z,9.16
2018-12-23T10:21:23.977Z,9.19
2018-12-23T10:22:24.672Z,9.22
2018-12-23T10:23:24.805Z,9.29
2018-12-23T10:24:25.938Z,9.16
2018-12-23T10:25:27.158Z,9.24
2018-12-23T10:26:27.406Z,9.15
2018-12-23T10:27:28.666Z,9.22
2018-12-23T10:28:28.634Z,9.27
2018-12-23T10:29:30.047Z,9.24
2018-12-23T10:30:31.050Z,9.3
2018-12-23T10:31:31.188Z,9.33
2018-12-23T10:32:31.964Z,9.26
2018-12-23T10:33:32.653Z,9.24
2018-12-23T10:34:34.583Z,9.27
2018-12-23T10:35:34.958Z,9.34
2018-12-23T10:36:35.098Z,9.34
2018-12-23T10:37:35.785Z,9.29
2018-12-23T10:38:36.756Z,9.33
2018-12-23T10:39:37.163Z,9.39
2018-12-23T10:40:37.854Z,9.4
2018-12-23T10:41:37.824Z,9.55
2018-12-23T10:42:38.511Z,9.48
2018-12-23T10:43:39.203Z,9.55
2018-12-23T10:44:40.337Z,9.55
2018-12-23T10:45:40.601Z,9.49
2018-12-23T10:46:42.129Z,9.51
2018-12-23T10:47:42.628Z,9.54
2018-12-23T10:48:44.041Z,9.52
2018-12-23T10:49:44.739Z,9.64
2018-12-23T10:50:45.432Z,9.72
2018-12-23T10:51:46.564Z,9.73
2018-12-23T10:52:47.531Z,9.82
2018-12-23T10:53:47.720Z,9.84
2018-12-23T10:54:49.137Z,9.87
2018-12-23T10:55:49.686Z,9.85
2018-12-23T10:56:50.221Z,9.85
2018-12-23T10:57:51.353Z,9.8
2018-12-23T10:58:53.046Z,9.74
2018-12-23T10:59:52.739Z,9.77
2018-12-23T11:00:54.153Z,9.84
2018-12-23T11:01:55.565Z,9.97
2018-12-23T11:02:56.254Z,9.97
2018-12-23T11:03:56.393Z,10.03
2018-12-23T11:04:57.528Z,10.03
2018-12-23T11:05:58.068Z,10.17
2018-12-23T11:06:59.770Z,10.1
2018-12-23T11:08:00.463Z,10.05
2018-12-23T11:09:01.722Z,10.17
2018-12-23T11:10:03.621Z,10.07
2018-12-23T11:11:04.596Z,10.09
2018-12-23T11:12:04.650Z,10.24
2018-12-23T11:13:05.341Z,10.27
2018-12-23T11:14:06.753Z,10.3
2018-12-23T11:15:08.166Z,10.39
2018-12-23T11:16:08.441Z,10.42
2018-12-23T11:17:08.861Z,10.42
2018-12-23T11:18:09.551Z,10.49
2018-12-23T11:19:10.242Z,10.59
2018-12-23T11:20:11.932Z,10.68
2018-12-23T11:21:11.672Z,10.59
2018-12-23T11:22:12.088Z,10.72
2018-12-23T11:23:13.270Z,10.79
2018-12-23T11:24:14.049Z,10.84
2018-12-23T11:25:14.461Z,10.8
2018-12-23T11:26:15.299Z,10.72
2018-12-23T11:27:16.714Z,10.8
2018-12-23T11:28:16.852Z,10.86
2018-12-23T11:29:17.825Z,10.86
2018-12-23T11:30:19.241Z,10.86
2018-12-23T11:31:19.749Z,10.75
2018-12-23T11:32:20.998Z,10.68
2018-12-23T11:33:20.976Z,10.67
2018-12-23T11:34:21.671Z,10.72
2018-12-23T11:35:22.088Z,10.71
2018-12-23T11:36:22.917Z,10.72
2018-12-23T11:37:23.443Z,10.58
2018-12-23T11:38:24.580Z,10.53
2018-12-23T11:39:25.557Z,10.62
2018-12-23T11:40:26.526Z,10.65
2018-12-23T11:41:26.496Z,10.61
2018-12-23T11:42:26.630Z,10.49
2018-12-23T11:43:28.064Z,10.48
2018-12-23T11:44:28.757Z,10.51
2018-12-23T11:45:30.449Z,10.53
2018-12-23T11:46:30.563Z,10.46
2018-12-23T11:47:31.540Z,10.42
2018-12-23T11:48:31.955Z,10.34
2018-12-23T11:49:33.093Z,10.25
2018-12-23T11:50:33.785Z,10.23
2018-12-23T11:51:34.754Z,10.25
2018-12-23T11:52:34.888Z,10.24
2018-12-23T11:53:35.300Z,10.17
2018-12-23T11:54:36.714Z,10.13
2018-12-23T11:55:38.131Z,10.06
2018-12-23T11:56:38.970Z,10.05
2018-12-23T11:57:40.220Z,10.02
2018-12-23T11:58:40.355Z,10.02
2018-12-23T11:59:41.328Z,10
2018-12-23T12:00:41.790Z,10.05
2018-12-23T12:01:42.217Z,10.09
2018-12-23T12:02:42.628Z,10.05
2018-12-23T12:03:43.878Z,10.03
2018-12-23T12:04:44.289Z,9.94
2018-12-23T12:05:45.258Z,9.95
2018-12-23T12:06:46.076Z,9.95
2018-12-23T12:07:46.494Z,9.92
2018-12-23T12:08:47.913Z,9.92
2018-12-23T12:09:48.925Z,10.02
2018-12-23T12:10:49.338Z,9.95
2018-12-23T12:11:52.212Z,9.99
2018-12-23T12:12:52.349Z,9.91
2018-12-23T12:13:53.762Z,9.95
2018-12-23T12:14:54.893Z,9.92
2018-12-23T12:15:55.640Z,9.94
2018-12-23T12:16:56.736Z,9.8
2018-12-23T12:17:56.882Z,9.82
2018-12-23T12:18:58.019Z,9.9
2018-12-23T12:19:58.717Z,9.85
2018-12-23T12:20:59.447Z,9.74
2018-12-23T12:22:00.417Z,9.66
2018-12-23T12:23:00.550Z,9.69
2018-12-23T12:24:01.242Z,9.62
2018-12-23T12:25:01.659Z,9.67
2018-12-23T12:26:02.943Z,9.64
2018-12-23T12:27:03.480Z,9.62
2018-12-23T12:28:03.899Z,9.63
2018-12-23T12:29:04.591Z,9.51
2018-12-23T12:30:06.001Z,9.49
2018-12-23T12:31:06.691Z,9.54
2018-12-23T12:32:07.829Z,9.54
2018-12-23T12:33:08.798Z,9.55
2018-12-23T12:34:09.489Z,9.64
2018-12-23T12:35:10.461Z,9.51
2018-12-23T12:36:11.153Z,9.52
2018-12-23T12:37:11.984Z,9.63
2018-12-23T12:38:13.117Z,9.44
2018-12-23T12:39:14.252Z,9.52
2018-12-23T12:40:15.393Z,9.44
2018-12-23T12:41:16.355Z,9.4
2018-12-23T12:42:17.324Z,9.34
2018-12-23T12:43:18.734Z,9.33
2018-12-23T12:44:21.633Z,9.34
2018-12-23T12:45:20.050Z,9.4
2018-12-23T12:46:21.295Z,9.37
2018-12-23T12:47:21.827Z,9.37
2018-12-23T12:48:22.516Z,9.3
2018-12-23T12:49:23.176Z,9.37
2018-12-23T12:50:23.387Z,9.3
2018-12-23T12:51:24.524Z,9.31
2018-12-23T12:52:25.223Z,9.33
2018-12-23T12:53:25.907Z,9.3
2018-12-23T12:54:26.597Z,9.3
2018-12-23T12:55:27.010Z,9.24
2018-12-23T12:56:27.817Z,9.21
2018-12-23T12:57:27.625Z,9.26
2018-12-23T12:58:28.035Z,9.29
2018-12-23T12:59:28.487Z,9.27
2018-12-23T13:00:29.896Z,9.3
2018-12-23T13:01:30.033Z,9.15
2018-12-23T13:02:30.440Z,9.18
2018-12-23T13:03:31.131Z,9.16
2018-12-23T13:04:31.914Z,9.11
2018-12-23T13:05:33.602Z,9.12
2018-12-23T13:06:34.288Z,9.22
2018-12-23T13:07:34.234Z,9.08
2018-12-23T13:08:34.989Z,9.11
2018-12-23T13:09:37.077Z,9.15
2018-12-23T13:10:37.452Z,9.11
2018-12-23T13:11:38.142Z,9.13
2018-12-23T13:12:39.552Z,9.09
2018-12-23T13:13:40.687Z,9.11
2018-12-23T13:14:41.934Z,9.11
2018-12-23T13:15:42.621Z,9.12
2018-12-23T13:16:43.648Z,9.09
2018-12-23T13:17:44.312Z,9.13
2018-12-23T13:18:44.444Z,9.09
2018-12-23T13:19:45.137Z,9.13
2018-12-23T13:20:45.822Z,9.13
2018-12-23T13:21:46.789Z,9.09
2018-12-23T13:22:47.821Z,9.02
2018-12-23T13:23:47.959Z,9.09
2018-12-23T13:24:48.923Z,9.15
2018-12-23T13:25:49.336Z,9.15
2018-12-23T13:26:49.755Z,9.05
2018-12-23T13:27:50.883Z,9.08